Time;durP1;ratioP1;P1;durP2;ratioP2;P2;SDS_P1;SDS_P2;PMS_P1;PMS_P2;Temp;Humidity;BMP_temperature;BMP_pressure;BME280_temperature;BME280_humidity;BME280_pressure;Samples;Min_cycle;Max_cycle;Signal;HPM_P1;HPM_P2
2022/05/26 00:01:59;;;;;;;7.75;4.63;;;12.70;99.90;;;;;;4983143;28;20053;-81
2022/05/26 00:04:27;;;;;;;9.13;6.43;;;12.80;99.90;;;;;;4991428;28;20503;-80
2022/05/26 00:06:53;;;;;;;15.48;9.80;;;12.80;99.90;;;;;;4984054;28;20049;-80
2022/05/26 00:09:23;;;;;;;16.20;11.85;;;12.80;99.90;;;;;;4992370;28;20054;-80
2022/05/26 00:11:49;;;;;;;23.63;15.43;;;12.80;99.90;;;;;;4984166;28;20418;-80
2022/05/26 00:14:15;;;;;;;23.02;17.27;;;12.90;99.90;;;;;;5003222;28;20418;-81
2022/05/26 00:16:43;;;;;;;25.10;17.10;;;12.90;99.90;;;;;;4994701;28;20053;-80
2022/05/26 00:19:11;;;;;;;25.30;17.58;;;12.90;99.90;;;;;;4973981;28;20063;-79
2022/05/26 00:21:38;;;;;;;28.63;19.92;;;13.00;99.90;;;;;;5001059;28;20418;-81
2022/05/26 00:24:04;;;;;;;27.42;20.38;;;13.00;99.90;;;;;;5006428;28;20592;-80
2022/05/26 00:26:31;;;;;;;28.70;21.88;;;13.00;99.90;;;;;;5024455;28;20050;-80
2022/05/26 00:28:57;;;;;;;30.08;22.88;;;13.00;99.90;;;;;;4997122;28;20123;-80
2022/05/26 00:31:23;;;;;;;33.17;24.23;;;13.00;99.90;;;;;;4993901;28;20044;-80
2022/05/26 00:33:49;;;;;;;41.75;28.63;;;13.10;99.90;;;;;;5020354;28;20045;-80
2022/05/26 00:36:16;;;;;;;34.83;25.63;;;13.10;99.90;;;;;;5020650;28;20074;-80
2022/05/26 00:38:42;;;;;;;38.20;26.98;;;13.10;99.90;;;;;;5022720;28;20045;-80
2022/05/26 00:41:12;;;;;;;36.00;25.20;;;13.10;99.90;;;;;;4994606;28;20056;-80
2022/05/26 00:43:45;;;;;;;43.40;27.45;;;13.20;99.90;;;;;;5042805;28;20859;-79
2022/05/26 00:46:35;;;;;;;35.40;25.13;;;13.20;99.90;;;;;;5007517;28;20049;-79
2022/05/26 00:49:03;;;;;;;39.95;27.90;;;13.20;99.90;;;;;;5020996;28;20049;-79
2022/05/26 00:51:35;;;;;;;44.70;27.60;;;13.20;99.90;;;;;;5015784;28;20122;-79
2022/05/26 00:54:11;;;;;;;40.00;27.48;;;13.20;99.90;;;;;;5005449;28;20049;-79
2022/05/26 00:56:56;;;;;;;49.45;28.63;;;13.20;99.90;;;;;;4992363;28;20146;-78
2022/05/26 00:59:40;;;;;;;44.50;28.33;;;13.20;99.90;;;;;;5011729;28;20446;-79
2022/05/26 01:02:07;;;;;;;48.42;29.58;;;13.20;99.90;;;;;;5022543;28;20049;-78
2022/05/26 01:04:41;;;;;;;47.78;30.35;;;13.30;99.90;;;;;;5015717;28;20045;-79
2022/05/26 01:07:17;;;;;;;50.70;30.60;;;13.30;99.90;;;;;;4994610;28;20079;-79
2022/05/26 01:09:44;;;;;;;50.88;31.58;;;13.30;99.90;;;;;;5020418;28;20532;-78
2022/05/26 01:12:10;;;;;;;43.03;29.75;;;13.30;99.90;;;;;;4972332;28;20132;-78
2022/05/26 01:14:48;;;;;;;56.38;29.80;;;13.40;99.90;;;;;;5016085;28;20091;-78
2022/05/26 01:17:37;;;;;;;45.35;30.25;;;13.40;99.90;;;;;;5004554;28;20076;-78
2022/05/26 01:20:15;;;;;;;48.10;31.08;;;13.40;99.90;;;;;;5026338;28;20052;-79
2022/05/26 01:22:41;;;;;;;49.55;30.60;;;13.40;99.90;;;;;;5017524;28;20128;-78
2022/05/26 01:25:39;;;;;;;46.63;30.52;;;13.40;99.90;;;;;;5029283;28;20047;-78
2022/05/26 01:28:43;;;;;;;44.55;29.15;;;13.40;99.90;;;;;;5016080;28;20124;-79
2022/05/26 01:31:35;;;;;;;47.47;29.45;;;13.50;99.90;;;;;;5006027;28;20104;-79
2022/05/26 01:34:32;;;;;;;53.28;30.55;;;13.40;99.90;;;;;;5041578;28;20052;-78
2022/05/26 01:37:29;;;;;;;47.72;30.90;;;13.50;99.90;;;;;;5025527;28;20431;-79
2022/05/26 01:40:05;;;;;;;50.75;30.05;;;13.50;99.90;;;;;;5006491;28;20049;-78
2022/05/26 01:42:53;;;;;;;47.15;29.77;;;13.50;99.90;;;;;;5036654;28;20132;-78
2022/05/26 01:45:30;;;;;;;55.53;30.48;;;13.50;99.90;;;;;;5037238;28;20136;-78
2022/05/26 01:48:09;;;;;;;47.63;29.73;;;13.50;99.90;;;;;;5010224;28;20572;-78
2022/05/26 01:51:05;;;;;;;53.25;30.30;;;13.50;99.90;;;;;;5006872;28;20491;-78
2022/05/26 01:53:44;;;;;;;51.58;29.35;;;13.50;99.90;;;;;;5024095;28;20099;-78
2022/05/26 01:56:36;;;;;;;53.28;31.45;;;13.50;99.90;;;;;;5021008;28;20293;-78
2022/05/26 01:59:06;;;;;;;57.67;30.10;;;13.50;99.90;;;;;;5003884;28;20049;-78
2022/05/26 02:01:37;;;;;;;51.72;30.27;;;13.50;99.90;;;;;;5005656;28;20045;-78
2022/05/26 02:04:08;;;;;;;57.25;30.25;;;13.40;99.90;;;;;;4996861;28;20049;-78
2022/05/26 02:06:40;;;;;;;55.80;29.40;;;13.40;99.90;;;;;;5013782;28;20391;-79
2022/05/26 02:09:08;;;;;;;;;;;13.40;99.90;;;;;;5001800;28;20469;-78
2022/05/26 02:11:41;;;;;;;48.70;27.55;;;13.40;99.90;;;;;;5004447;28;19979;-78
2022/05/26 02:14:12;;;;;;;54.80;28.73;;;13.40;99.90;;;;;;4999071;28;20053;-78
2022/05/26 02:16:49;;;;;;;57.67;29.52;;;13.40;99.90;;;;;;5046410;28;20501;-78
2022/05/26 02:19:25;;;;;;;57.10;28.80;;;13.40;99.90;;;;;;5006688;28;20053;-78
2022/05/26 02:22:17;;;;;;;49.78;28.83;;;13.40;99.90;;;;;;5003548;28;20052;-78
2022/05/26 02:24:56;;;;;;;61.97;28.48;;;13.40;99.90;;;;;;5009244;28;20080;-78
2022/05/26 02:27:25;;;;;;;53.30;27.17;;;13.40;99.90;;;;;;4999440;28;20073;-78
2022/05/26 02:29:51;;;;;;;54.05;29.23;;;13.40;99.90;;;;;;5015502;28;20042;-78
2022/05/26 02:32:35;;;;;;;52.72;27.60;;;13.40;99.90;;;;;;5019212;28;20511;-79
2022/05/26 02:35:17;;;;;;;58.80;27.88;;;13.40;99.90;;;;;;4981498;28;20079;-78
2022/05/26 02:37:47;;;;;;;60.17;28.75;;;13.50;99.90;;;;;;5005391;28;20545;-78
2022/05/26 02:40:14;;;;;;;68.97;30.83;;;13.50;99.90;;;;;;5006380;28;20812;-78
2022/05/26 02:42:52;;;;;;;56.28;28.85;;;13.50;99.90;;;;;;4999637;28;20037;-78
2022/05/26 02:45:33;;;;;;;55.10;27.65;;;13.50;99.90;;;;;;5022672;28;20088;-78
2022/05/26 02:48:17;;;;;;;57.78;28.73;;;13.50;99.90;;;;;;5021229;28;20050;-78
2022/05/26 02:50:58;;;;;;;56.67;28.80;;;13.50;99.90;;;;;;5019048;28;20144;-78
2022/05/26 02:54:01;;;;;;;55.72;28.63;;;13.40;99.90;;;;;;4989389;28;20399;-79
2022/05/26 02:56:27;;;;;;;55.13;27.58;;;13.40;99.90;;;;;;5012372;28;20049;-78
2022/05/26 02:59:11;;;;;;;58.60;27.92;;;13.40;99.90;;;;;;5021898;28;20123;-78
2022/05/26 03:02:02;;;;;;;57.85;28.08;;;13.40;99.90;;;;;;4996463;28;20063;-78
2022/05/26 03:04:32;;;;;;;50.67;25.05;;;13.40;99.90;;;;;;4995000;28;20053;-79
2022/05/26 03:07:03;;;;;;;54.08;27.00;;;13.40;99.90;;;;;;5020321;28;20514;-78
2022/05/26 03:09:33;;;;;;;57.88;26.02;;;13.40;99.90;;;;;;5007902;28;20056;-78
2022/05/26 03:12:00;;;;;;;50.92;25.55;;;13.40;99.90;;;;;;5013661;28;20045;-78
2022/05/26 03:14:26;;;;;;;48.70;23.98;;;13.40;99.90;;;;;;4991539;28;20044;-78
2022/05/26 03:16:53;;;;;;;53.17;24.52;;;13.50;99.90;;;;;;4988476;28;20194;-78
2022/05/26 03:19:19;;;;;;;55.63;23.33;;;13.50;99.90;;;;;;4974751;28;20127;-78
2022/05/26 03:21:46;;;;;;;53.88;20.98;;;13.50;99.90;;;;;;5018703;28;20049;-78
2022/05/26 03:24:13;;;;;;;57.35;20.48;;;13.50;99.90;;;;;;5014162;28;20044;-78
2022/05/26 03:26:40;;;;;;;46.92;20.50;;;13.50;99.90;;;;;;5012681;28;20046;-78
2022/05/26 03:29:06;;;;;;;56.13;19.23;;;13.50;99.90;;;;;;5000392;28;20049;-78
2022/05/26 03:31:33;;;;;;;46.63;17.73;;;13.50;99.90;;;;;;4986801;28;20044;-78
2022/05/26 03:42:16;;;;;;;46.35;15.82;;;13.50;99.90;;;;;;5011153;28;20075;-78
2022/05/26 03:44:44;;;;;;;45.60;15.63;;;13.50;99.90;;;;;;5031133;28;20506;-77
2022/05/26 03:47:10;;;;;;;40.20;15.82;;;13.50;99.90;;;;;;5003282;28;20077;-78
2022/05/26 03:49:36;;;;;;;55.30;15.82;;;13.50;99.90;;;;;;4995728;28;20051;-78
2022/05/26 03:52:02;;;;;;;44.35;14.85;;;13.40;99.90;;;;;;5002670;28;20064;-77
2022/05/26 03:54:30;;;;;;;46.45;16.00;;;13.40;99.90;;;;;;5002817;28;20045;-78
2022/05/26 03:56:57;;;;;;;40.00;14.90;;;13.40;99.90;;;;;;5004236;28;20148;-78
2022/05/26 03:59:23;;;;;;;46.83;14.25;;;13.50;99.90;;;;;;5007415;28;20513;-77
2022/05/26 04:01:49;;;;;;;34.72;13.45;;;13.40;99.90;;;;;;4993800;28;20058;-78
2022/05/26 04:04:15;;;;;;;41.90;13.30;;;13.50;99.90;;;;;;4991227;28;20497;-77
2022/05/26 04:06:41;;;;;;;52.22;13.82;;;13.50;99.90;;;;;;4979053;28;20068;-77
2022/05/26 04:09:08;;;;;;;37.03;13.02;;;13.40;99.90;;;;;;4984109;28;20057;-78
2022/05/26 04:11:35;;;;;;;36.28;12.07;;;13.40;99.90;;;;;;4982546;28;20045;-78
2022/05/26 04:14:02;;;;;;;33.08;10.73;;;13.40;99.90;;;;;;4989362;28;20057;-78
2022/05/26 04:16:28;;;;;;;39.05;11.73;;;13.40;99.90;;;;;;4984863;28;20049;-77
2022/05/26 04:18:54;;;;;;;33.47;11.05;;;13.40;99.90;;;;;;4968205;28;20056;-77
2022/05/26 04:21:20;;;;;;;32.92;10.27;;;13.40;99.90;;;;;;4984230;28;20040;-77
2022/05/26 04:23:46;;;;;;;38.72;11.30;;;13.40;99.90;;;;;;4982537;28;20049;-77
2022/05/26 04:26:13;;;;;;;33.13;11.18;;;13.40;99.90;;;;;;4985557;28;20053;-77
2022/05/26 04:28:39;;;;;;;30.83;10.48;;;13.30;99.90;;;;;;4975180;28;20127;-77
2022/05/26 04:31:06;;;;;;;33.60;10.07;;;13.30;99.90;;;;;;5000724;28;20060;-77
2022/05/26 04:33:32;;;;;;;30.02;9.13;;;13.30;99.90;;;;;;4949889;28;20448;-77
2022/05/26 04:36:05;;;;;;;29.42;8.70;;;13.30;99.90;;;;;;4993940;28;20111;-78
2022/05/26 04:38:32;;;;;;;28.08;7.32;;;13.30;99.90;;;;;;4965257;28;20089;-77
2022/05/26 04:41:00;;;;;;;26.30;7.63;;;13.30;99.90;;;;;;4962700;28;20567;-77
2022/05/26 04:43:27;;;;;;;28.10;7.55;;;13.30;99.90;;;;;;4996224;28;20052;-77
2022/05/26 04:45:53;;;;;;;24.33;7.38;;;13.40;99.90;;;;;;4976255;28;20145;-77
2022/05/26 04:48:21;;;;;;;26.58;8.20;;;13.30;99.90;;;;;;4971732;28;20140;-77
2022/05/26 04:50:50;;;;;;;22.77;6.00;;;13.30;99.90;;;;;;4982728;28;20741;-77
2022/05/26 04:53:17;;;;;;;20.77;5.55;;;13.40;99.90;;;;;;4992560;28;20052;-77
2022/05/26 04:55:43;;;;;;;22.42;5.32;;;13.40;99.90;;;;;;4986772;28;20085;-77
2022/05/26 04:58:10;;;;;;;22.83;6.05;;;13.40;99.90;;;;;;4986273;28;20652;-77
2022/05/26 05:00:36;;;;;;;18.92;5.63;;;13.30;99.90;;;;;;4987638;28;20053;-77
2022/05/26 05:03:03;;;;;;;18.83;5.80;;;13.30;99.90;;;;;;5009201;28;20102;-77
2022/05/26 05:05:29;;;;;;;20.15;4.95;;;13.50;99.90;;;;;;4973583;28;20596;-77
2022/05/26 05:07:55;;;;;;;13.30;3.53;;;13.90;99.90;;;;;;4990665;28;20076;-78
2022/05/26 05:10:21;;;;;;;14.32;4.28;;;14.20;99.90;;;;;;4979978;28;20107;-80
2022/05/26 05:12:49;;;;;;;14.25;4.45;;;14.60;99.90;;;;;;5004298;28;20436;-81
2022/05/26 05:15:23;;;;;;;13.00;2.90;;;14.80;99.90;;;;;;5014490;28;20136;-79
2022/05/26 05:17:49;;;;;;;9.75;2.30;;;14.90;99.90;;;;;;4993542;28;20453;-78
2022/05/26 05:20:16;;;;;;;11.25;2.58;;;15.00;99.90;;;;;;4994059;28;20555;-80
2022/05/26 05:22:51;;;;;;;10.38;3.08;;;15.10;99.90;;;;;;5003342;28;20141;-79
2022/05/26 05:25:28;;;;;;;8.00;2.10;;;15.30;99.90;;;;;;5013655;28;20099;-79
2022/05/26 05:28:24;;;;;;;10.93;2.72;;;15.50;99.90;;;;;;5012151;28;20041;-79
2022/05/26 05:30:57;;;;;;;12.55;2.45;;;15.70;99.90;;;;;;4987200;28;20040;-79
2022/05/26 05:33:39;;;;;;;10.00;2.30;;;15.90;99.90;;;;;;5012976;28;20076;-80
2022/05/26 05:36:13;;;;;;;8.60;2.05;;;16.00;99.90;;;;;;5027915;28;20054;-78
2022/05/26 05:38:40;;;;;;;7.57;2.10;;;15.90;99.90;;;;;;5022374;28;20049;-78
2022/05/26 05:41:10;;;;;;;8.50;1.63;;;16.10;99.90;;;;;;5001446;28;20407;-78
2022/05/26 05:43:37;;;;;;;7.75;2.38;;;16.10;99.90;;;;;;5000231;28;20045;-78
2022/05/26 05:46:04;;;;;;;11.07;2.58;;;16.30;99.90;;;;;;5015404;28;20605;-78
2022/05/26 05:48:31;;;;;;;8.38;2.08;;;16.50;99.90;;;;;;4998644;28;20042;-78
2022/05/26 05:50:57;;;;;;;10.85;2.00;;;16.50;99.90;;;;;;4988349;28;20067;-78
2022/05/26 05:53:24;;;;;;;9.23;2.05;;;16.60;99.90;;;;;;5006481;28;20156;-79
2022/05/26 05:55:50;;;;;;;11.18;1.95;;;16.80;99.90;;;;;;5000298;28;20053;-78
2022/05/26 05:58:16;;;;;;;10.02;1.90;;;16.60;99.90;;;;;;4988898;28;20413;-78
2022/05/26 06:00:42;;;;;;;7.10;1.40;;;16.70;99.90;;;;;;5001534;28;20045;-79
2022/05/26 06:03:09;;;;;;;6.55;1.42;;;16.70;99.90;;;;;;4984357;28;20134;-78
2022/05/26 06:05:36;;;;;;;8.52;2.15;;;16.80;99.90;;;;;;4967560;28;20045;-79
2022/05/26 06:08:03;;;;;;;27.85;22.75;;;17.00;99.90;;;;;;5017627;28;20140;-79
2022/05/26 06:10:30;;;;;;;10.88;4.57;;;16.70;99.90;;;;;;5019714;28;20098;-79
2022/05/26 06:13:00;;;;;;;12.45;8.50;;;16.50;99.90;;;;;;5000840;28;20049;-79
2022/05/26 06:15:39;;;;;;;;;;;;;;;;;;;;;
2022/05/26 06:18:09;;;;;;;9.80;2.00;;;16.00;99.90;;;;;;4993049;28;20073;-82
2022/05/26 06:20:35;;;;;;;8.57;3.70;;;15.80;99.90;;;;;;4989795;28;20041;-82
2022/05/26 06:23:06;;;;;;;5.90;3.00;;;15.80;99.90;;;;;;4990520;28;20045;-82
2022/05/26 06:25:33;;;;;;;4.00;1.15;;;15.90;99.90;;;;;;4987214;28;20041;-82
2022/05/26 06:30:48;;;;;;;12.00;5.72;;;16.10;99.90;;;;;;5009936;28;20044;-81
2022/05/26 06:38:46;;;;;;;14.02;8.40;;;16.90;99.90;;;;;;5028887;28;20140;-82
2022/05/26 06:44:04;;;;;;;7.53;1.90;;;17.70;99.90;;;;;;5024208;28;20199;-84
2022/05/26 06:46:31;;;;;;;8.70;5.15;;;17.80;99.90;;;;;;4969843;28;20503;-82
2022/05/26 06:48:57;;;;;;;4.43;1.15;;;17.80;99.90;;;;;;4965036;28;20100;-83
2022/05/26 06:51:26;;;;;;;9.07;2.08;;;17.60;99.90;;;;;;4984309;28;20050;-82
2022/05/26 06:53:52;;;;;;;6.45;1.52;;;17.20;99.90;;;;;;4972147;28;20053;-82
2022/05/26 06:56:22;;;;;;;6.28;3.10;;;17.20;99.90;;;;;;5029769;28;20509;-82
2022/05/26 06:58:48;;;;;;;5.35;1.27;;;17.40;99.90;;;;;;5014642;28;20581;-85
2022/05/26 07:01:14;;;;;;;6.97;1.27;;;17.40;99.90;;;;;;4979706;28;20053;-85
2022/05/26 07:03:41;;;;;;;7.07;1.45;;;17.50;99.90;;;;;;5012765;28;20357;-85
2022/05/26 07:06:19;;;;;;;5.13;1.48;;;17.30;99.90;;;;;;5015274;28;20049;-85
2022/05/26 07:08:47;;;;;;;6.50;1.48;;;17.50;99.90;;;;;;4984978;28;20471;-86
2022/05/26 07:11:14;;;;;;;8.35;1.85;;;17.60;99.90;;;;;;4969708;28;20060;-82
2022/05/26 07:13:41;;;;;;;23.63;18.95;;;17.90;99.90;;;;;;4987761;28;20430;-86
2022/05/26 07:16:09;;;;;;;21.45;17.30;;;17.90;99.90;;;;;;4967332;28;20079;-88
2022/05/26 07:18:37;;;;;;;8.80;4.72;;;17.60;99.90;;;;;;4948485;28;20181;-86
2022/05/26 07:21:06;;;;;;;9.82;5.28;;;17.60;99.90;;;;;;5005339;28;20399;-86
2022/05/26 07:23:33;;;;;;;5.53;0.98;;;17.70;99.90;;;;;;5002922;28;20144;-84
2022/05/26 07:25:59;;;;;;;8.13;1.30;;;17.60;99.90;;;;;;4970816;28;20407;-85
2022/05/26 07:28:25;;;;;;;5.07;2.13;;;17.60;99.90;;;;;;4979209;28;20040;-85
2022/05/26 07:30:54;;;;;;;3.75;1.48;;;17.70;99.90;;;;;;4976803;28;20399;-86
2022/05/26 07:33:21;;;;;;;7.53;4.53;;;17.60;99.90;;;;;;4994790;28;20041;-86
2022/05/26 07:35:47;;;;;;;5.95;1.15;;;17.70;99.90;;;;;;4990578;28;20075;-85
2022/05/26 07:41:17;;;;;;;5.25;1.33;;;17.60;99.90;;;;;;5019453;28;20152;-85
2022/05/26 07:43:54;;;;;;;6.28;1.85;;;17.70;99.90;;;;;;4988142;28;20052;-85
2022/05/26 07:46:30;;;;;;;7.13;1.65;;;17.70;99.90;;;;;;5035869;28;21489;-86
2022/05/26 07:49:05;;;;;;;6.05;1.35;;;17.70;99.90;;;;;;4982495;28;20041;-86
2022/05/26 07:51:31;;;;;;;18.05;14.90;;;17.80;99.90;;;;;;4976563;28;20052;-90
2022/05/26 07:54:01;;;;;;;9.82;4.20;;;17.90;99.90;;;;;;4975383;28;20109;-87
2022/05/26 07:56:41;;;;;;;7.57;4.15;;;18.00;99.90;;;;;;4990310;28;20056;-87
2022/05/26 07:59:10;;;;;;;4.38;1.60;;;17.90;99.90;;;;;;4973447;28;20052;-86
2022/05/26 08:01:37;;;;;;;6.97;3.10;;;17.70;99.90;;;;;;4980464;28;20144;-86
2022/05/26 08:04:05;;;;;;;3.10;1.23;;;17.90;99.90;;;;;;5010797;28;20117;-76
2022/05/26 08:06:32;;;;;;;5.00;1.25;;;18.00;99.90;;;;;;4987045;28;20414;-74
2022/05/26 08:08:58;;;;;;;6.50;1.40;;;18.10;99.90;;;;;;5004940;28;20055;-75
2022/05/26 08:11:24;;;;;;;5.25;1.30;;;18.00;99.90;;;;;;4991651;28;20049;-74
2022/05/26 08:13:50;;;;;;;4.45;1.25;;;18.10;99.90;;;;;;5003358;28;20057;-74
2022/05/26 08:16:16;;;;;;;4.85;1.02;;;18.60;99.90;;;;;;4986516;28;20047;-77
2022/05/26 08:18:42;;;;;;;3.67;0.90;;;19.10;99.90;;;;;;4987043;28;20403;-78
2022/05/26 08:21:16;;;;;;;8.32;1.55;;;19.20;99.90;;;;;;4981721;28;20045;-76
2022/05/26 08:23:42;;;;;;;2.65;0.70;;;19.30;99.90;;;;;;4973757;28;20049;-76
2022/05/26 08:26:08;;;;;;;11.15;5.65;;;19.30;99.90;;;;;;4940955;28;20041;-78
2022/05/26 08:28:34;;;;;;;36.85;32.55;;;19.10;99.90;;;;;;4992442;28;20045;-75
2022/05/26 08:31:00;;;;;;;6.40;2.00;;;18.90;99.90;;;;;;4987127;28;20041;-76
2022/05/26 08:33:29;;;;;;;7.20;2.70;;;18.80;99.90;;;;;;5018157;28;20045;-74
2022/05/26 08:36:08;;;;;;;7.43;2.83;;;18.90;99.90;;;;;;4988315;28;20338;-74
2022/05/26 08:38:35;;;;;;;7.57;3.45;;;19.40;99.90;;;;;;5010932;28;20107;-74
2022/05/26 08:41:03;;;;;;;3.85;1.15;;;19.50;99.90;;;;;;4991490;28;20061;-77
2022/05/26 08:44:08;;;;;;;4.00;0.93;;;19.60;99.90;;;;;;4987132;28;20051;-75
2022/05/26 08:47:03;;;;;;;3.13;1.00;;;19.60;99.90;;;;;;5019609;28;20052;-76
2022/05/26 08:49:44;;;;;;;2.88;0.65;;;19.90;99.90;;;;;;4987079;28;20059;-76
2022/05/26 08:52:10;;;;;;;4.07;1.00;;;20.00;99.90;;;;;;4998512;28;20439;-73
2022/05/26 08:55:03;;;;;;;3.88;1.60;;;20.40;99.90;;;;;;4988262;28;20067;-79
2022/05/26 08:57:49;;;;;;;5.43;1.25;;;20.30;99.90;;;;;;4993234;28;20131;-76
2022/05/26 09:00:19;;;;;;;5.53;1.48;;;20.40;99.90;;;;;;5019132;28;20044;-85
2022/05/26 09:02:45;;;;;;;31.95;28.55;;;20.90;99.90;;;;;;4992180;28;20487;-80
2022/05/26 09:05:17;;;;;;;6.15;2.17;;;21.10;99.90;;;;;;4977434;28;20103;-80
2022/05/26 09:14:07;;;;;;;4.30;0.90;;;21.50;99.90;;;;;;5005650;28;20064;-80
2022/05/26 09:17:00;;;;;;;5.38;1.95;;;21.70;99.90;;;;;;5007897;28;20577;-81
2022/05/26 09:19:33;;;;;;;4.05;0.85;;;21.20;99.90;;;;;;5034035;28;20065;-79
2022/05/26 09:21:59;;;;;;;3.40;0.90;;;20.80;99.90;;;;;;5001555;28;20077;-78
2022/05/26 09:24:36;;;;;;;7.00;0.93;;;20.60;99.90;;;;;;5008091;28;20052;-78
2022/05/26 09:27:06;;;;;;;5.75;0.80;;;20.30;99.90;;;;;;5021146;28;20057;-78
2022/05/26 09:29:37;;;;;;;4.25;1.17;;;20.00;99.90;;;;;;4992367;28;20047;-78
2022/05/26 09:32:05;;;;;;;3.33;0.80;;;20.60;99.90;;;;;;4977490;28;21741;-78
2022/05/26 09:34:34;;;;;;;4.50;1.08;;;20.90;99.90;;;;;;4994200;28;20494;-78
2022/05/26 09:37:03;;;;;;;2.83;0.77;;;21.30;99.90;;;;;;5012802;28;20049;-80
2022/05/26 09:39:38;;;;;;;2.95;0.68;;;21.40;99.90;;;;;;5024731;28;20044;-79
2022/05/26 09:42:07;;;;;;;2.38;0.55;;;21.80;99.90;;;;;;4974600;28;20076;-78
2022/05/26 09:44:33;;;;;;;15.38;6.45;;;22.10;99.90;;;;;;5011926;28;20529;-79
2022/05/26 09:47:04;;;;;;;5.93;1.95;;;22.10;99.90;;;;;;5011364;28;20041;-80
2022/05/26 09:49:38;;;;;;;5.20;1.10;;;21.10;98.00;;;;;;5013999;28;20407;-78
2022/05/26 09:52:15;;;;;;;3.20;0.80;;;21.80;98.80;;;;;;4996110;28;20744;-78
2022/05/26 09:54:41;;;;;;;4.30;0.85;;;22.00;99.90;;;;;;5015937;28;20059;-78
2022/05/26 09:57:17;;;;;;;2.67;0.60;;;22.00;99.90;;;;;;5005260;28;20107;-79
2022/05/26 09:59:45;;;;;;;6.28;1.80;;;22.00;98.80;;;;;;5000620;28;20402;-80
2022/05/26 10:02:17;;;;;;;3.13;1.10;;;22.20;99.90;;;;;;5007620;28;20049;-80
2022/05/26 10:05:05;;;;;;;6.35;2.35;;;21.80;99.90;;;;;;5034295;28;20041;-80
2022/05/26 10:08:12;;;;;;;5.27;1.00;;;21.60;99.90;;;;;;5010130;28;20185;-80
2022/05/26 10:10:41;;;;;;;4.30;1.23;;;21.20;99.60;;;;;;4991104;28;20492;-78
2022/05/26 10:13:18;;;;;;;2.45;0.90;;;21.00;99.90;;;;;;4989747;28;20051;-80
2022/05/26 10:16:07;;;;;;;5.53;0.98;;;21.00;99.90;;;;;;5019663;28;20045;-79
2022/05/26 10:18:42;;;;;;;6.25;1.20;;;20.70;99.90;;;;;;5008252;28;20045;-79
2022/05/26 10:21:15;;;;;;;3.58;0.88;;;20.60;99.90;;;;;;4996332;28;20045;-79
2022/05/26 10:24:07;;;;;;;4.10;0.93;;;20.50;99.90;;;;;;4991808;28;20389;-77
2022/05/26 10:26:48;;;;;;;3.83;0.90;;;20.20;99.90;;;;;;4999245;28;20392;-79
2022/05/26 10:29:26;;;;;;;6.65;1.10;;;19.80;99.90;;;;;;5014083;28;20041;-78
2022/05/26 10:32:15;;;;;;;3.13;0.73;;;19.70;99.90;;;;;;4994336;28;20037;-78
2022/05/26 10:35:00;;;;;;;3.97;1.00;;;19.50;99.90;;;;;;5035098;28;20045;-79
2022/05/26 10:37:26;;;;;;;3.45;1.10;;;19.80;99.90;;;;;;5038749;28;20143;-78
2022/05/26 10:40:01;;;;;;;7.15;1.20;;;20.10;99.90;;;;;;5021477;28;20152;-78
2022/05/26 10:42:33;;;;;;;3.13;0.80;;;19.90;99.90;;;;;;4978435;28;20436;-79
2022/05/26 10:45:10;;;;;;;2.85;0.85;;;19.70;99.90;;;;;;5020031;28;20049;-79
2022/05/26 10:47:56;;;;;;;5.20;1.00;;;20.20;99.90;;;;;;5005511;28;20048;-78
2022/05/26 10:50:50;;;;;;;3.75;0.98;;;19.70;99.90;;;;;;4993189;28;20041;-83
2022/05/26 10:53:29;;;;;;;6.20;2.22;;;19.60;99.90;;;;;;4979271;28;20095;-78
2022/05/26 10:56:12;;;;;;;4.80;1.38;;;19.20;99.90;;;;;;5010306;28;20075;-78
2022/05/26 10:58:42;;;;;;;20.40;13.85;;;19.10;99.90;;;;;;5003054;28;20140;-79
2022/05/26 11:01:33;;;;;;;5.40;2.33;;;18.90;99.90;;;;;;4985465;28;20052;-79
2022/05/26 11:04:25;;;;;;;4.28;1.48;;;18.70;99.90;;;;;;4973800;28;20053;-79
2022/05/26 11:06:57;;;;;;;9.07;4.43;;;18.60;99.90;;;;;;5011805;28;20105;-79
2022/05/26 11:09:32;;;;;;;;;;;18.70;99.90;;;;;;5010809;28;20049;-79
2022/05/26 11:12:01;;;;;;;6.70;1.77;;;19.70;99.90;;;;;;4978572;28;19924;-80
2022/05/26 11:18:00;;;;;;;5.57;1.52;;;19.60;99.90;;;;;;5009033;28;20792;-80
2022/05/26 11:20:41;;;;;;;6.20;1.60;;;19.40;99.90;;;;;;4986857;28;20045;-80
2022/05/26 11:23:08;;;;;;;4.20;1.30;;;19.70;99.90;;;;;;4977795;28;20483;-79
2022/05/26 11:26:06;;;;;;;5.70;1.17;;;19.70;99.90;;;;;;4995050;28;20040;-79
2022/05/26 11:28:40;;;;;;;3.50;1.02;;;19.80;99.90;;;;;;5010322;28;21562;-79
2022/05/26 11:37:02;;;;;;;6.90;1.58;;;19.30;99.90;;;;;;4989631;28;20045;-80
2022/05/26 11:39:40;;;;;;;5.78;1.48;;;19.60;99.90;;;;;;4978994;28;20057;-80
2022/05/26 11:42:27;;;;;;;4.15;0.88;;;19.30;99.90;;;;;;4984386;28;20045;-80
2022/05/26 11:45:03;;;;;;;2.88;1.00;;;19.20;99.90;;;;;;5006526;28;20664;-79
2022/05/26 11:47:47;;;;;;;5.63;1.05;;;18.90;99.90;;;;;;4982893;28;20049;-80
2022/05/26 11:50:42;;;;;;;3.05;0.90;;;19.00;99.90;;;;;;4988354;28;20862;-80
2022/05/26 11:53:34;;;;;;;5.53;1.20;;;19.80;99.90;;;;;;4983550;28;20601;-80
2022/05/26 11:56:05;;;;;;;2.30;0.90;;;20.00;99.90;;;;;;5014460;28;20472;-80
2022/05/26 11:58:32;;;;;;;5.65;1.17;;;20.00;99.90;;;;;;4993057;28;20535;-80
2022/05/26 12:01:23;;;;;;;4.80;0.90;;;19.70;99.90;;;;;;4984811;28;20067;-80
2022/05/26 12:04:06;;;;;;;5.65;0.90;;;19.90;99.90;;;;;;4969449;28;20049;-79
2022/05/26 12:06:52;;;;;;;7.57;3.38;;;20.20;99.90;;;;;;4977933;28;20052;-81
2022/05/26 12:09:23;;;;;;;4.13;1.70;;;20.30;99.90;;;;;;5013855;28;20053;-81
2022/05/26 12:12:17;;;;;;;8.00;2.58;;;20.40;99.90;;;;;;4967127;28;20052;-81
2022/05/26 12:14:55;;;;;;;64.28;58.03;;;20.40;99.90;;;;;;4987899;28;20045;-78
2022/05/26 12:17:30;;;;;;;5.20;3.33;;;20.40;99.90;;;;;;4961611;28;20115;-81
2022/05/26 12:20:24;;;;;;;6.97;3.00;;;20.60;99.90;;;;;;4988329;28;20160;-76
2022/05/26 12:22:50;;;;;;;5.45;1.02;;;20.60;99.90;;;;;;4976879;28;20226;-76
2022/05/26 12:25:32;;;;;;;4.53;1.27;;;21.60;99.90;;;;;;4999472;28;20061;-76
2022/05/26 12:28:10;;;;;;;4.35;1.05;;;21.80;99.90;;;;;;5038024;28;20149;-76
2022/05/26 12:30:40;;;;;;;6.55;1.55;;;21.00;99.90;;;;;;5020287;28;20048;-76
2022/05/26 12:33:21;;;;;;;6.90;1.65;;;20.80;99.90;;;;;;5022251;28;20152;-76
2022/05/26 12:36:21;;;;;;;4.68;0.90;;;21.10;99.90;;;;;;4988219;28;20575;-76
2022/05/26 12:38:49;;;;;;;4.25;1.20;;;21.40;99.90;;;;;;4998091;28;20037;-76
2022/05/26 12:41:18;;;;;;;7.82;1.63;;;21.60;99.90;;;;;;5006445;28;20041;-76
2022/05/26 12:44:02;;;;;;;4.70;1.10;;;21.50;99.90;;;;;;4989035;28;20049;-76
2022/05/26 12:46:55;;;;;;;4.57;1.48;;;21.10;99.00;;;;;;4970383;28;20167;-76
2022/05/26 12:49:46;;;;;;;6.72;1.23;;;21.00;99.90;;;;;;4973708;28;20320;-76
2022/05/26 12:52:20;;;;;;;4.80;1.20;;;21.10;99.90;;;;;;5039712;28;20514;-75
2022/05/26 12:55:02;;;;;;;6.10;1.08;;;21.30;99.90;;;;;;5004326;28;20049;-75
2022/05/26 12:57:31;;;;;;;5.38;1.13;;;21.10;99.90;;;;;;4984717;28;20413;-76
2022/05/26 13:00:32;;;;;;;5.15;1.30;;;21.20;99.90;;;;;;4989524;28;20045;-76
2022/05/26 13:03:02;;;;;;;4.18;1.05;;;20.60;99.90;;;;;;5006316;28;20558;-76
2022/05/26 13:05:33;;;;;;;5.78;1.13;;;20.90;99.90;;;;;;4994287;28;21506;-77
2022/05/26 13:08:02;;;;;;;9.30;1.45;;;21.30;99.90;;;;;;4978809;28;20091;-76
2022/05/26 13:10:37;;;;;;;6.85;1.58;;;21.10;99.90;;;;;;4978491;28;20049;-76
2022/05/26 13:13:24;;;;;;;7.63;1.27;;;21.40;99.90;;;;;;4989202;28;20048;-76
2022/05/26 13:15:50;;;;;;;4.53;1.17;;;21.20;99.90;;;;;;5000363;28;20175;-76
2022/05/26 13:18:26;;;;;;;5.68;1.30;;;21.60;99.90;;;;;;5017621;28;20049;-76
2022/05/26 13:20:52;;;;;;;3.92;0.90;;;21.60;99.90;;;;;;5000833;28;20048;-76
2022/05/26 13:23:31;;;;;;;4.15;0.93;;;21.60;99.90;;;;;;5003815;28;20080;-75
2022/05/26 13:25:59;;;;;;;3.92;1.30;;;21.10;98.90;;;;;;5005336;28;21422;-75
2022/05/26 13:28:33;;;;;;;3.47;1.17;;;20.70;99.40;;;;;;5006668;28;20128;-75
2022/05/26 13:33:48;;;;;;;4.85;1.20;;;20.20;99.90;;;;;;5011313;28;20044;-75
2022/05/26 13:36:33;;;;;;;7.40;1.75;;;20.10;99.90;;;;;;5017125;28;21005;-75
2022/05/26 13:39:09;;;;;;;5.93;1.50;;;20.00;99.90;;;;;;4997205;28;20542;-76
2022/05/26 13:41:37;;;;;;;7.00;1.60;;;20.20;99.90;;;;;;5001182;28;20084;-76
2022/05/26 13:44:11;;;;;;;6.13;1.33;;;20.30;99.90;;;;;;5014993;28;20132;-76
2022/05/26 13:46:52;;;;;;;5.68;1.70;;;20.30;99.90;;;;;;5005840;28;20498;-75
2022/05/26 13:49:37;;;;;;;9.52;1.85;;;20.30;99.90;;;;;;5018836;28;20494;-76
2022/05/26 13:52:18;;;;;;;3.58;1.27;;;20.10;99.90;;;;;;5016357;28;20569;-76
2022/05/26 13:54:49;;;;;;;7.57;1.37;;;19.80;99.90;;;;;;5022308;28;20060;-76